# Tabular Observed and Forecast Hydrograph Information
#
# Location: Cache Creek - Rumsey (RMSC1)
#
# File Generation Time: 05/10/2026 at 07:31 AM PDT
# Data Interval: 1 Hour
#
# Most Recent Date & Time of Maximum Observed: 05/05/2026 at 06:00 PM PDT
# Maximum Observed Stage: 2.68 Feet
# Maximum Observed Flow: 497 cfs
#
# Earliest Date & Time of Maximum Forecast: 05/10/2026 at 08:00 AM PDT
# Maximum Forecast Stage: 2.55 Feet
# Maximum Forecast Flow: 428 cfs
#
# OBSERVED
#
# Date & Time (Local) Stage (Feet) Flow (cfs) Trend Observed Status
# ---------------------------------------------------------------------------------
05/05/2026 07 AM PDT 2.67 491 Normal
05/05/2026 08 AM PDT 2.66 486 - Normal
05/05/2026 09 AM PDT 2.66 486 0 Normal
05/05/2026 10 AM PDT 2.66 486 0 Normal
05/05/2026 11 AM PDT 2.67 491 + Normal
05/05/2026 12 PM PDT 2.68 497 + Normal
05/05/2026 01 PM PDT 2.67 491 - Normal
05/05/2026 02 PM PDT 2.67 491 0 Normal
05/05/2026 03 PM PDT 2.67 491 0 Normal
05/05/2026 04 PM PDT 2.68 497 + Normal
05/05/2026 05 PM PDT 2.68 497 0 Normal
05/05/2026 06 PM PDT 2.68 497 0 Normal
05/05/2026 07 PM PDT 2.67 491 - Normal
05/05/2026 08 PM PDT 2.67 491 0 Normal
05/05/2026 09 PM PDT 2.60 454 - Normal
05/05/2026 10 PM PDT 2.55 428 - Normal
05/05/2026 11 PM PDT 2.52 413 - Normal
05/06/2026 12 AM PDT 2.52 413 0 Normal
05/06/2026 01 AM PDT 2.52 413 0 Normal
05/06/2026 02 AM PDT 2.52 413 0 Normal
05/06/2026 03 AM PDT 2.52 413 0 Normal
05/06/2026 04 AM PDT 2.52 413 0 Normal
05/06/2026 05 AM PDT 2.51 408 - Normal
05/06/2026 06 AM PDT 2.51 408 0 Normal
05/06/2026 07 AM PDT 2.51 408 0 Normal
05/06/2026 08 AM PDT 2.51 408 0 Normal
05/06/2026 09 AM PDT 2.51 408 0 Normal
05/06/2026 10 AM PDT 2.51 408 0 Normal
05/06/2026 11 AM PDT 2.50 403 - Normal
05/06/2026 12 PM PDT 2.51 408 + Normal
05/06/2026 01 PM PDT 2.52 413 + Normal
05/06/2026 02 PM PDT 2.51 408 - Normal
05/06/2026 03 PM PDT 2.51 408 0 Normal
05/06/2026 04 PM PDT 2.52 413 + Normal
05/06/2026 05 PM PDT 2.51 408 - Normal
05/06/2026 06 PM PDT 2.51 408 0 Normal
05/06/2026 07 PM PDT 2.53 418 + Normal
05/06/2026 08 PM PDT 2.51 408 - Normal
05/06/2026 09 PM PDT 2.53 418 + Normal
05/06/2026 10 PM PDT 2.51 408 - Normal
05/06/2026 11 PM PDT 2.50 403 - Normal
05/07/2026 12 AM PDT 2.50 403 0 Normal
05/07/2026 01 AM PDT 2.49 398 - Normal
05/07/2026 02 AM PDT 2.48 393 - Normal
05/07/2026 03 AM PDT 2.49 398 + Normal
05/07/2026 04 AM PDT 2.49 398 0 Normal
05/07/2026 05 AM PDT 2.48 393 - Normal
05/07/2026 06 AM PDT 2.49 398 + Normal
05/07/2026 07 AM PDT 2.48 393 - Normal
05/07/2026 08 AM PDT 2.49 398 + Normal
05/07/2026 09 AM PDT 2.49 398 0 Normal
05/07/2026 10 AM PDT 2.49 398 0 Normal
05/07/2026 11 AM PDT 2.51 408 + Normal
05/07/2026 12 PM PDT 2.48 393 - Normal
05/07/2026 01 PM PDT 2.46 384 - Normal
05/07/2026 02 PM PDT 2.46 384 0 Normal
05/07/2026 03 PM PDT 2.46 384 0 Normal
05/07/2026 04 PM PDT 2.46 384 0 Normal
05/07/2026 05 PM PDT 2.46 384 0 Normal
05/07/2026 06 PM PDT 2.47 389 + Normal
05/07/2026 07 PM PDT 2.47 389 0 Normal
05/07/2026 08 PM PDT 2.47 389 0 Normal
05/07/2026 09 PM PDT 2.46 384 - Normal
05/07/2026 10 PM PDT 2.45 379 - Normal
05/07/2026 11 PM PDT 2.43 370 - Normal
05/08/2026 12 AM PDT 2.43 370 0 Normal
05/08/2026 01 AM PDT 2.43 370 0 Normal
05/08/2026 02 AM PDT 2.44 375 + Normal
05/08/2026 03 AM PDT 2.43 370 - Normal
05/08/2026 04 AM PDT 2.44 375 + Normal
05/08/2026 05 AM PDT 2.44 375 0 Normal
05/08/2026 06 AM PDT 2.43 370 - Normal
05/08/2026 07 AM PDT 2.44 375 + Normal
05/08/2026 08 AM PDT 2.43 370 - Normal
05/08/2026 09 AM PDT 2.44 375 + Normal
05/08/2026 10 AM PDT 2.46 384 + Normal
05/08/2026 11 AM PDT 2.47 389 + Normal
05/08/2026 12 PM PDT 2.47 389 0 Normal
05/08/2026 01 PM PDT 2.50 403 + Normal
05/08/2026 02 PM PDT 2.42 366 - Normal
05/08/2026 03 PM PDT 2.42 366 0 Normal
05/08/2026 04 PM PDT 2.45 379 + Normal
05/08/2026 05 PM PDT 2.44 375 - Normal
05/08/2026 06 PM PDT 2.42 366 - Normal
05/08/2026 07 PM PDT 2.42 366 0 Normal
05/08/2026 08 PM PDT 2.47 389 + Normal
05/08/2026 09 PM PDT 2.45 379 - Normal
05/08/2026 10 PM PDT 2.45 379 0 Normal
05/08/2026 11 PM PDT 2.45 379 0 Normal
05/09/2026 12 AM PDT 2.45 379 0 Normal
05/09/2026 01 AM PDT 2.45 379 0 Normal
05/09/2026 02 AM PDT 2.44 375 - Normal
05/09/2026 03 AM PDT 2.45 379 + Normal
05/09/2026 04 AM PDT 2.45 379 0 Normal
05/09/2026 05 AM PDT 2.45 379 0 Normal
05/09/2026 06 AM PDT 2.44 375 - Normal
05/09/2026 07 AM PDT 2.49 398 + Normal
05/09/2026 08 AM PDT 2.49 398 0 Normal
05/09/2026 09 AM PDT 2.49 398 0 Normal
05/09/2026 10 AM PDT 2.50 403 + Normal
05/09/2026 11 AM PDT 2.48 393 - Normal
05/09/2026 12 PM PDT 2.49 398 + Normal
05/09/2026 01 PM PDT 2.48 393 - Normal
05/09/2026 02 PM PDT 2.45 379 - Normal
05/09/2026 03 PM PDT 2.45 379 0 Normal
05/09/2026 04 PM PDT 2.44 375 - Normal
05/09/2026 05 PM PDT 2.44 375 0 Normal
05/09/2026 06 PM PDT 2.47 389 + Normal
05/09/2026 07 PM PDT 2.46 384 - Normal
05/09/2026 08 PM PDT 2.47 389 + Normal
05/09/2026 09 PM PDT 2.48 393 + Normal
05/09/2026 10 PM PDT 2.53 418 + Normal
05/09/2026 11 PM PDT 2.54 423 + Normal
05/10/2026 12 AM PDT 2.55 428 + Normal
05/10/2026 01 AM PDT 2.54 423 - Normal
05/10/2026 02 AM PDT 2.54 423 0 Normal
05/10/2026 03 AM PDT 2.55 428 + Normal
05/10/2026 04 AM PDT 2.55 428 0 Normal
05/10/2026 05 AM PDT 2.55 428 0 Normal
05/10/2026 06 AM PDT 2.55 428 0 Normal
05/10/2026 07 AM PDT 2.55 428 0 Normal
#
# FORECAST
#
# Date & Time (Local) Stage (Feet) Flow (cfs) Trend Forecast Status
# ---------------------------------------------------------------------------------
05/10/2026 08 AM PDT 2.55 428 Normal
05/10/2026 09 AM PDT 2.54 423 - Normal
05/10/2026 10 AM PDT 2.54 423 0 Normal
05/10/2026 11 AM PDT 2.54 423 0 Normal
05/10/2026 12 PM PDT 2.54 423 0 Normal
05/10/2026 01 PM PDT 2.54 423 0 Normal
05/10/2026 02 PM PDT 2.54 423 0 Normal
05/10/2026 03 PM PDT 2.54 423 0 Normal
05/10/2026 04 PM PDT 2.54 423 0 Normal
05/10/2026 05 PM PDT 2.54 423 0 Normal
05/10/2026 06 PM PDT 2.54 423 0 Normal
05/10/2026 07 PM PDT 2.54 423 0 Normal
05/10/2026 08 PM PDT 2.54 423 0 Normal
05/10/2026 09 PM PDT 2.54 423 0 Normal
05/10/2026 10 PM PDT 2.54 423 0 Normal
05/10/2026 11 PM PDT 2.54 423 0 Normal
05/11/2026 12 AM PDT 2.54 423 0 Normal
05/11/2026 01 AM PDT 2.54 423 0 Normal
05/11/2026 02 AM PDT 2.54 423 0 Normal
05/11/2026 03 AM PDT 2.54 423 0 Normal
05/11/2026 04 AM PDT 2.54 423 0 Normal
05/11/2026 05 AM PDT 2.54 423 0 Normal
05/11/2026 06 AM PDT 2.54 423 0 Normal
05/11/2026 07 AM PDT 2.54 423 0 Normal
05/11/2026 08 AM PDT 2.54 423 0 Normal
05/11/2026 09 AM PDT 2.54 423 0 Normal
05/11/2026 10 AM PDT 2.54 423 0 Normal
05/11/2026 11 AM PDT 2.54 423 0 Normal
05/11/2026 12 PM PDT 2.54 423 0 Normal
05/11/2026 01 PM PDT 2.54 423 0 Normal
05/11/2026 02 PM PDT 2.54 423 0 Normal
05/11/2026 03 PM PDT 2.54 423 0 Normal
05/11/2026 04 PM PDT 2.54 423 0 Normal
05/11/2026 05 PM PDT 2.54 423 0 Normal
05/11/2026 06 PM PDT 2.54 423 0 Normal
05/11/2026 07 PM PDT 2.54 423 0 Normal
05/11/2026 08 PM PDT 2.54 423 0 Normal
05/11/2026 09 PM PDT 2.54 423 0 Normal
05/11/2026 10 PM PDT 2.54 423 0 Normal
05/11/2026 11 PM PDT 2.54 423 0 Normal
05/12/2026 12 AM PDT 2.54 423 0 Normal
05/12/2026 01 AM PDT 2.54 423 0 Normal
05/12/2026 02 AM PDT 2.54 423 0 Normal
05/12/2026 03 AM PDT 2.54 423 0 Normal
05/12/2026 04 AM PDT 2.54 423 0 Normal
05/12/2026 05 AM PDT 2.54 423 0 Normal
05/12/2026 06 AM PDT 2.54 423 0 Normal
05/12/2026 07 AM PDT 2.54 423 0 Normal
05/12/2026 08 AM PDT 2.54 423 0 Normal
05/12/2026 09 AM PDT 2.54 423 0 Normal
05/12/2026 10 AM PDT 2.54 423 0 Normal
05/12/2026 11 AM PDT 2.54 423 0 Normal
05/12/2026 12 PM PDT 2.54 423 0 Normal
05/12/2026 01 PM PDT 2.54 423 0 Normal
05/12/2026 02 PM PDT 2.54 423 0 Normal
05/12/2026 03 PM PDT 2.54 423 0 Normal
05/12/2026 04 PM PDT 2.54 423 0 Normal
05/12/2026 05 PM PDT 2.54 423 0 Normal
05/12/2026 06 PM PDT 2.54 423 0 Normal
05/12/2026 07 PM PDT 2.53 418 - Normal
05/12/2026 08 PM PDT 2.53 418 0 Normal
05/12/2026 09 PM PDT 2.53 418 0 Normal
05/12/2026 10 PM PDT 2.53 418 0 Normal
05/12/2026 11 PM PDT 2.53 418 0 Normal
05/13/2026 12 AM PDT 2.53 418 0 Normal
05/13/2026 01 AM PDT 2.53 418 0 Normal
05/13/2026 02 AM PDT 2.53 418 0 Normal
05/13/2026 03 AM PDT 2.53 418 0 Normal
05/13/2026 04 AM PDT 2.53 418 0 Normal
05/13/2026 05 AM PDT 2.53 418 0 Normal
05/13/2026 06 AM PDT 2.53 418 0 Normal
05/13/2026 07 AM PDT 2.53 418 0 Normal
05/13/2026 08 AM PDT 2.53 418 0 Normal
05/13/2026 09 AM PDT 2.53 418 0 Normal
05/13/2026 10 AM PDT 2.53 418 0 Normal
05/13/2026 11 AM PDT 2.53 418 0 Normal
05/13/2026 12 PM PDT 2.53 418 0 Normal
05/13/2026 01 PM PDT 2.53 418 0 Normal
05/13/2026 02 PM PDT 2.53 418 0 Normal
05/13/2026 03 PM PDT 2.53 418 0 Normal
05/13/2026 04 PM PDT 2.53 418 0 Normal
05/13/2026 05 PM PDT 2.53 418 0 Normal
05/13/2026 06 PM PDT 2.53 418 0 Normal
05/13/2026 07 PM PDT 2.53 418 0 Normal
05/13/2026 08 PM PDT 2.53 418 0 Normal
05/13/2026 09 PM PDT 2.53 418 0 Normal
05/13/2026 10 PM PDT 2.53 418 0 Normal
05/13/2026 11 PM PDT 2.53 418 0 Normal
05/14/2026 12 AM PDT 2.53 418 0 Normal
05/14/2026 01 AM PDT 2.53 418 0 Normal
05/14/2026 02 AM PDT 2.53 418 0 Normal
05/14/2026 03 AM PDT 2.53 418 0 Normal
05/14/2026 04 AM PDT 2.53 418 0 Normal
05/14/2026 05 AM PDT 2.53 418 0 Normal
05/14/2026 06 AM PDT 2.53 418 0 Normal
05/14/2026 07 AM PDT 2.53 418 0 Normal
05/14/2026 08 AM PDT 2.53 418 0 Normal
05/14/2026 09 AM PDT 2.53 418 0 Normal
05/14/2026 10 AM PDT 2.53 418 0 Normal
05/14/2026 11 AM PDT 2.53 418 0 Normal
05/14/2026 12 PM PDT 2.53 418 0 Normal
05/14/2026 01 PM PDT 2.53 418 0 Normal
05/14/2026 02 PM PDT 2.53 418 0 Normal
05/14/2026 03 PM PDT 2.53 418 0 Normal
05/14/2026 04 PM PDT 2.53 418 0 Normal
05/14/2026 05 PM PDT 2.53 418 0 Normal
05/14/2026 06 PM PDT 2.53 418 0 Normal
05/14/2026 07 PM PDT 2.53 418 0 Normal
05/14/2026 08 PM PDT 2.53 418 0 Normal
05/14/2026 09 PM PDT 2.53 418 0 Normal
05/14/2026 10 PM PDT 2.53 418 0 Normal
05/14/2026 11 PM PDT 2.53 418 0 Normal
05/15/2026 12 AM PDT 2.53 418 0 Normal
05/15/2026 01 AM PDT 2.53 418 0 Normal
05/15/2026 02 AM PDT 2.53 418 0 Normal
05/15/2026 03 AM PDT 2.53 418 0 Normal
05/15/2026 04 AM PDT 2.53 418 0 Normal
05/15/2026 05 AM PDT 2.53 418 0 Normal
#
# NOTE 1: Stages are rounded to the nearest hundredth (.01) of a foot.
# NOTE 2: Flows are rounded to the nearest (1) cfs.
# NOTE 3: Trends are determined using hourly change in unrounded stage and flow.
# NOTE 4: Maximum Values are determined using unrounded stage and flow.
|